Sukkur, Sukkur Airport (OPSK)

NameSukkur Airport
CitySukkur
CountryPakistan
ICAOOPSK
IATASKZ
Altitude60 m
CoordinatesGoogle Map
Live Air TrafficLiveATC.net
METAROPSK 192000Z 00000KT 4000 HZ NSC 26/17 Q1006 NOSIG
2019-04-19 20:00:00 Wind: North (0°) 0 m/s - Visibility: 4000 m - Weather: Haze - Temperature: 26 °C - Dew point: 17 °C - Humidity: 57.7% - Pressure: 1006 hPa
Statistics

The table below shows the detailed information of all flights to/from Sukkur, Sukkur Airport (OPSK).